sensor_id;sensor_type;location;lat;lon;timestamp;P1;durP1;ratioP1;P2;durP2;ratioP2
59504;SDS011;45321;53.200;5.814;2023-03-31T00:01:35;54.42;;;8.68;;
59504;SDS011;45321;53.200;5.814;2023-03-31T00:04:06;49.58;;;7.80;;
59504;SDS011;45321;53.200;5.814;2023-03-31T00:06:37;46.78;;;7.95;;
59504;SDS011;45321;53.200;5.814;2023-03-31T00:09:12;43.45;;;6.85;;
59504;SDS011;45321;53.200;5.814;2023-03-31T00:11:43;54.08;;;7.97;;
59504;SDS011;45321;53.200;5.814;2023-03-31T00:14:09;39.55;;;7.68;;
59504;SDS011;45321;53.200;5.814;2023-03-31T00:16:36;48.78;;;6.88;;
59504;SDS011;45321;53.200;5.814;2023-03-31T00:19:03;47.63;;;8.27;;
59504;SDS011;45321;53.200;5.814;2023-03-31T00:21:30;44.83;;;6.25;;
59504;SDS011;45321;53.200;5.814;2023-03-31T00:24:05;53.65;;;7.95;;
59504;SDS011;45321;53.200;5.814;2023-03-31T00:26:31;47.08;;;6.68;;
59504;SDS011;45321;53.200;5.814;2023-03-31T00:28:58;46.97;;;8.45;;
59504;SDS011;45321;53.200;5.814;2023-03-31T00:31:25;36.08;;;6.85;;
59504;SDS011;45321;53.200;5.814;2023-03-31T00:33:51;46.20;;;7.38;;
59504;SDS011;45321;53.200;5.814;2023-03-31T00:36:17;45.17;;;7.90;;
59504;SDS011;45321;53.200;5.814;2023-03-31T00:39:01;43.75;;;6.72;;
59504;SDS011;45321;53.200;5.814;2023-03-31T00:41:34;47.47;;;7.53;;
59504;SDS011;45321;53.200;5.814;2023-03-31T00:46:49;40.47;;;7.72;;
59504;SDS011;45321;53.200;5.814;2023-03-31T00:49:38;45.33;;;5.55;;
59504;SDS011;45321;53.200;5.814;2023-03-31T00:52:15;48.83;;;7.13;;
59504;SDS011;45321;53.200;5.814;2023-03-31T00:54:55;47.88;;;7.53;;
59504;SDS011;45321;53.200;5.814;2023-03-31T00:57:24;39.05;;;6.07;;
59504;SDS011;45321;53.200;5.814;2023-03-31T01:00:00;38.58;;;6.53;;
59504;SDS011;45321;53.200;5.814;2023-03-31T01:02:48;46.47;;;6.45;;
59504;SDS011;45321;53.200;5.814;2023-03-31T01:05:28;43.42;;;6.65;;
59504;SDS011;45321;53.200;5.814;2023-03-31T01:08:04;46.72;;;7.50;;
59504;SDS011;45321;53.200;5.814;2023-03-31T01:10:32;39.90;;;7.20;;
59504;SDS011;45321;53.200;5.814;2023-03-31T01:13:06;38.13;;;5.85;;
59504;SDS011;45321;53.200;5.814;2023-03-31T01:15:36;40.67;;;5.78;;
59504;SDS011;45321;53.200;5.814;2023-03-31T01:18:04;35.40;;;5.75;;
59504;SDS011;45321;53.200;5.814;2023-03-31T01:34:28;37.50;;;6.40;;
59504;SDS011;45321;53.200;5.814;2023-03-31T01:43:09;34.28;;;5.85;;
59504;SDS011;45321;53.200;5.814;2023-03-31T01:45:52;40.47;;;6.07;;
59504;SDS011;45321;53.200;5.814;2023-03-31T01:51:12;36.30;;;5.13;;
59504;SDS011;45321;53.200;5.814;2023-03-31T01:53:49;37.45;;;6.32;;
59504;SDS011;45321;53.200;5.814;2023-03-31T01:59:19;42.42;;;7.25;;
59504;SDS011;45321;53.200;5.814;2023-03-31T02:02:01;38.70;;;5.65;;
59504;SDS011;45321;53.200;5.814;2023-03-31T02:04:49;33.72;;;5.80;;
59504;SDS011;45321;53.200;5.814;2023-03-31T02:07:29;35.80;;;6.28;;
59504;SDS011;45321;53.200;5.814;2023-03-31T02:10:00;35.70;;;6.47;;
59504;SDS011;45321;53.200;5.814;2023-03-31T02:12:29;35.78;;;6.65;;
59504;SDS011;45321;53.200;5.814;2023-03-31T02:14:58;36.60;;;5.85;;
59504;SDS011;45321;53.200;5.814;2023-03-31T02:17:27;33.35;;;5.80;;
59504;SDS011;45321;53.200;5.814;2023-03-31T02:19:57;28.58;;;5.57;;
59504;SDS011;45321;53.200;5.814;2023-03-31T02:22:28;35.08;;;5.50;;
59504;SDS011;45321;53.200;5.814;2023-03-31T02:24:57;36.20;;;5.65;;
59504;SDS011;45321;53.200;5.814;2023-03-31T02:27:37;35.25;;;6.72;;
59504;SDS011;45321;53.200;5.814;2023-03-31T02:30:06;40.70;;;6.60;;
59504;SDS011;45321;53.200;5.814;2023-03-31T02:32:37;30.77;;;5.50;;
59504;SDS011;45321;53.200;5.814;2023-03-31T02:35:05;33.50;;;5.03;;
59504;SDS011;45321;53.200;5.814;2023-03-31T02:37:34;30.23;;;5.35;;
59504;SDS011;45321;53.200;5.814;2023-03-31T02:40:02;34.78;;;5.60;;
59504;SDS011;45321;53.200;5.814;2023-03-31T02:42:35;35.25;;;4.85;;
59504;SDS011;45321;53.200;5.814;2023-03-31T02:45:03;38.38;;;5.93;;
59504;SDS011;45321;53.200;5.814;2023-03-31T02:47:29;33.63;;;4.95;;
59504;SDS011;45321;53.200;5.814;2023-03-31T02:49:56;32.33;;;5.25;;
59504;SDS011;45321;53.200;5.814;2023-03-31T03:00:35;27.63;;;4.13;;
59504;SDS011;45321;53.200;5.814;2023-03-31T03:03:24;31.50;;;5.10;;
59504;SDS011;45321;53.200;5.814;2023-03-31T03:16:38;28.80;;;4.78;;
59504;SDS011;45321;53.200;5.814;2023-03-31T03:19:07;34.83;;;5.05;;
59504;SDS011;45321;53.200;5.814;2023-03-31T03:21:33;27.17;;;4.55;;
59504;SDS011;45321;53.200;5.814;2023-03-31T03:23:59;29.92;;;4.85;;
59504;SDS011;45321;53.200;5.814;2023-03-31T03:26:26;30.23;;;4.80;;
59504;SDS011;45321;53.200;5.814;2023-03-31T03:28:55;26.98;;;4.68;;
59504;SDS011;45321;53.200;5.814;2023-03-31T03:31:21;30.83;;;4.30;;
59504;SDS011;45321;53.200;5.814;2023-03-31T03:33:48;32.13;;;5.53;;
59504;SDS011;45321;53.200;5.814;2023-03-31T03:36:14;35.03;;;6.20;;
59504;SDS011;45321;53.200;5.814;2023-03-31T03:38:40;33.53;;;5.18;;
59504;SDS011;45321;53.200;5.814;2023-03-31T03:41:06;32.85;;;5.00;;
59504;SDS011;45321;53.200;5.814;2023-03-31T03:43:32;34.10;;;5.97;;
59504;SDS011;45321;53.200;5.814;2023-03-31T03:45:58;30.80;;;4.03;;
59504;SDS011;45321;53.200;5.814;2023-03-31T03:48:24;35.00;;;5.60;;
59504;SDS011;45321;53.200;5.814;2023-03-31T03:50:50;29.90;;;5.28;;
59504;SDS011;45321;53.200;5.814;2023-03-31T03:53:18;26.38;;;5.28;;
59504;SDS011;45321;53.200;5.814;2023-03-31T03:55:44;27.05;;;5.53;;
59504;SDS011;45321;53.200;5.814;2023-03-31T03:58:13;20.90;;;4.47;;
59504;SDS011;45321;53.200;5.814;2023-03-31T04:00:40;32.47;;;6.10;;
59504;SDS011;45321;53.200;5.814;2023-03-31T04:03:05;29.02;;;5.40;;
59504;SDS011;45321;53.200;5.814;2023-03-31T04:05:31;28.65;;;5.78;;
59504;SDS011;45321;53.200;5.814;2023-03-31T04:07:57;29.08;;;5.47;;
59504;SDS011;45321;53.200;5.814;2023-03-31T04:10:23;29.27;;;5.55;;
59504;SDS011;45321;53.200;5.814;2023-03-31T04:12:48;26.15;;;7.13;;
59504;SDS011;45321;53.200;5.814;2023-03-31T04:15:14;29.23;;;6.82;;
59504;SDS011;45321;53.200;5.814;2023-03-31T04:17:40;29.50;;;6.60;;
59504;SDS011;45321;53.200;5.814;2023-03-31T04:20:06;26.65;;;7.10;;
59504;SDS011;45321;53.200;5.814;2023-03-31T04:22:36;24.83;;;7.43;;
59504;SDS011;45321;53.200;5.814;2023-03-31T04:25:06;21.58;;;6.47;;
59504;SDS011;45321;53.200;5.814;2023-03-31T04:27:34;24.80;;;8.73;;
59504;SDS011;45321;53.200;5.814;2023-03-31T04:30:00;27.88;;;8.32;;
59504;SDS011;45321;53.200;5.814;2023-03-31T04:32:26;23.20;;;7.97;;
59504;SDS011;45321;53.200;5.814;2023-03-31T04:34:52;25.05;;;8.68;;
59504;SDS011;45321;53.200;5.814;2023-03-31T04:37:28;21.55;;;8.88;;
59504;SDS011;45321;53.200;5.814;2023-03-31T04:39:59;18.98;;;7.85;;
59504;SDS011;45321;53.200;5.814;2023-03-31T04:42:34;22.38;;;8.50;;
59504;SDS011;45321;53.200;5.814;2023-03-31T04:45:00;23.33;;;8.25;;
59504;SDS011;45321;53.200;5.814;2023-03-31T04:47:26;29.35;;;8.65;;
59504;SDS011;45321;53.200;5.814;2023-03-31T04:49:52;19.10;;;8.27;;
59504;SDS011;45321;53.200;5.814;2023-03-31T04:52:18;23.45;;;8.52;;
59504;SDS011;45321;53.200;5.814;2023-03-31T04:54:44;24.25;;;8.13;;
59504;SDS011;45321;53.200;5.814;2023-03-31T04:57:10;23.35;;;8.50;;
59504;SDS011;45321;53.200;5.814;2023-03-31T04:59:35;21.83;;;8.50;;
59504;SDS011;45321;53.200;5.814;2023-03-31T05:02:01;24.40;;;8.90;;
59504;SDS011;45321;53.200;5.814;2023-03-31T05:04:27;23.63;;;8.20;;
59504;SDS011;45321;53.200;5.814;2023-03-31T05:06:52;19.45;;;7.65;;
59504;SDS011;45321;53.200;5.814;2023-03-31T05:09:18;20.95;;;8.35;;
59504;SDS011;45321;53.200;5.814;2023-03-31T05:11:44;23.48;;;8.75;;
59504;SDS011;45321;53.200;5.814;2023-03-31T05:14:10;25.83;;;9.07;;
59504;SDS011;45321;53.200;5.814;2023-03-31T05:16:36;26.70;;;10.02;;
59504;SDS011;45321;53.200;5.814;2023-03-31T05:19:02;29.25;;;10.13;;
59504;SDS011;45321;53.200;5.814;2023-03-31T05:21:28;21.20;;;9.63;;
59504;SDS011;45321;53.200;5.814;2023-03-31T05:23:54;27.55;;;10.32;;
59504;SDS011;45321;53.200;5.814;2023-03-31T05:26:20;25.35;;;10.45;;
59504;SDS011;45321;53.200;5.814;2023-03-31T05:28:49;29.20;;;11.20;;
59504;SDS011;45321;53.200;5.814;2023-03-31T05:31:15;23.15;;;10.35;;
59504;SDS011;45321;53.200;5.814;2023-03-31T05:33:41;21.85;;;10.60;;
59504;SDS011;45321;53.200;5.814;2023-03-31T05:36:08;23.48;;;9.48;;
59504;SDS011;45321;53.200;5.814;2023-03-31T05:38:35;26.75;;;9.68;;
59504;SDS011;45321;53.200;5.814;2023-03-31T05:41:01;28.90;;;9.50;;
59504;SDS011;45321;53.200;5.814;2023-03-31T05:43:27;27.30;;;9.45;;
59504;SDS011;45321;53.200;5.814;2023-03-31T05:45:53;23.80;;;8.70;;
59504;SDS011;45321;53.200;5.814;2023-03-31T05:48:19;24.17;;;9.60;;
59504;SDS011;45321;53.200;5.814;2023-03-31T05:50:45;23.85;;;8.65;;
59504;SDS011;45321;53.200;5.814;2023-03-31T05:53:11;24.58;;;9.25;;
59504;SDS011;45321;53.200;5.814;2023-03-31T05:55:37;23.23;;;9.60;;
59504;SDS011;45321;53.200;5.814;2023-03-31T05:58:03;20.20;;;10.02;;
59504;SDS011;45321;53.200;5.814;2023-03-31T06:00:31;23.13;;;9.32;;
59504;SDS011;45321;53.200;5.814;2023-03-31T06:02:57;16.70;;;9.25;;
59504;SDS011;45321;53.200;5.814;2023-03-31T06:05:23;25.50;;;10.25;;
59504;SDS011;45321;53.200;5.814;2023-03-31T06:07:51;24.17;;;10.38;;
59504;SDS011;45321;53.200;5.814;2023-03-31T06:10:18;24.98;;;10.05;;
59504;SDS011;45321;53.200;5.814;2023-03-31T06:12:44;20.15;;;9.93;;
59504;SDS011;45321;53.200;5.814;2023-03-31T06:15:10;25.23;;;9.77;;
59504;SDS011;45321;53.200;5.814;2023-03-31T06:17:36;23.00;;;10.15;;
59504;SDS011;45321;53.200;5.814;2023-03-31T06:20:02;25.27;;;10.57;;
59504;SDS011;45321;53.200;5.814;2023-03-31T06:22:29;23.20;;;9.68;;
59504;SDS011;45321;53.200;5.814;2023-03-31T06:24:55;25.13;;;11.30;;
59504;SDS011;45321;53.200;5.814;2023-03-31T06:27:21;17.35;;;10.27;;
59504;SDS011;45321;53.200;5.814;2023-03-31T06:29:47;19.50;;;10.32;;
59504;SDS011;45321;53.200;5.814;2023-03-31T06:32:14;26.38;;;10.65;;
59504;SDS011;45321;53.200;5.814;2023-03-31T06:34:40;21.75;;;10.57;;
59504;SDS011;45321;53.200;5.814;2023-03-31T06:37:06;19.73;;;10.27;;
59504;SDS011;45321;53.200;5.814;2023-03-31T06:39:31;20.73;;;10.02;;
59504;SDS011;45321;53.200;5.814;2023-03-31T06:41:57;18.40;;;10.07;;
59504;SDS011;45321;53.200;5.814;2023-03-31T06:44:23;16.17;;;8.15;;
59504;SDS011;45321;53.200;5.814;2023-03-31T06:46:48;15.80;;;8.38;;
59504;SDS011;45321;53.200;5.814;2023-03-31T06:49:15;15.98;;;7.32;;
59504;SDS011;45321;53.200;5.814;2023-03-31T06:51:40;19.38;;;7.28;;
59504;SDS011;45321;53.200;5.814;2023-03-31T06:54:06;14.00;;;7.45;;
59504;SDS011;45321;53.200;5.814;2023-03-31T06:56:32;14.68;;;6.20;;
59504;SDS011;45321;53.200;5.814;2023-03-31T06:58:58;17.55;;;6.18;;
59504;SDS011;45321;53.200;5.814;2023-03-31T07:01:23;10.05;;;6.28;;
59504;SDS011;45321;53.200;5.814;2023-03-31T07:03:49;14.52;;;5.38;;
59504;SDS011;45321;53.200;5.814;2023-03-31T07:06:15;15.23;;;5.63;;
59504;SDS011;45321;53.200;5.814;2023-03-31T07:08:41;13.23;;;5.28;;
59504;SDS011;45321;53.200;5.814;2023-03-31T07:11:06;11.38;;;4.90;;
59504;SDS011;45321;53.200;5.814;2023-03-31T07:13:32;12.15;;;4.75;;
59504;SDS011;45321;53.200;5.814;2023-03-31T07:15:58;9.15;;;4.03;;
59504;SDS011;45321;53.200;5.814;2023-03-31T07:18:24;9.07;;;4.38;;
59504;SDS011;45321;53.200;5.814;2023-03-31T07:20:50;9.75;;;4.28;;
59504;SDS011;45321;53.200;5.814;2023-03-31T07:23:16;11.75;;;4.00;;
59504;SDS011;45321;53.200;5.814;2023-03-31T07:25:42;15.40;;;4.80;;
59504;SDS011;45321;53.200;5.814;2023-03-31T07:28:09;7.55;;;4.07;;
59504;SDS011;45321;53.200;5.814;2023-03-31T07:30:36;11.65;;;4.65;;
59504;SDS011;45321;53.200;5.814;2023-03-31T07:33:01;10.30;;;3.88;;
59504;SDS011;45321;53.200;5.814;2023-03-31T07:35:27;7.85;;;3.80;;
59504;SDS011;45321;53.200;5.814;2023-03-31T07:37:53;7.60;;;3.40;;
59504;SDS011;45321;53.200;5.814;2023-03-31T07:40:23;7.80;;;3.80;;
59504;SDS011;45321;53.200;5.814;2023-03-31T07:42:53;8.32;;;3.10;;
59504;SDS011;45321;53.200;5.814;2023-03-31T07:45:20;12.40;;;4.00;;
59504;SDS011;45321;53.200;5.814;2023-03-31T07:47:47;8.40;;;3.85;;
59504;SDS011;45321;53.200;5.814;2023-03-31T07:50:13;7.40;;;3.78;;
59504;SDS011;45321;53.200;5.814;2023-03-31T07:52:40;19.77;;;7.25;;
59504;SDS011;45321;53.200;5.814;2023-03-31T07:55:06;11.65;;;4.60;;
59504;SDS011;45321;53.200;5.814;2023-03-31T07:57:33;12.07;;;3.92;;
59504;SDS011;45321;53.200;5.814;2023-03-31T07:59:59;12.82;;;4.53;;
59504;SDS011;45321;53.200;5.814;2023-03-31T08:02:29;8.88;;;4.00;;
59504;SDS011;45321;53.200;5.814;2023-03-31T08:04:55;8.18;;;4.75;;
59504;SDS011;45321;53.200;5.814;2023-03-31T08:07:21;9.43;;;4.40;;
59504;SDS011;45321;53.200;5.814;2023-03-31T08:09:47;10.13;;;4.70;;
59504;SDS011;45321;53.200;5.814;2023-03-31T08:12:13;9.57;;;4.72;;
59504;SDS011;45321;53.200;5.814;2023-03-31T08:14:40;9.20;;;4.53;;
59504;SDS011;45321;53.200;5.814;2023-03-31T08:17:06;12.43;;;5.05;;
59504;SDS011;45321;53.200;5.814;2023-03-31T08:19:32;10.30;;;4.95;;
59504;SDS011;45321;53.200;5.814;2023-03-31T08:21:58;12.05;;;5.53;;
59504;SDS011;45321;53.200;5.814;2023-03-31T08:24:23;12.80;;;5.65;;
59504;SDS011;45321;53.200;5.814;2023-03-31T08:26:49;11.70;;;4.72;;
59504;SDS011;45321;53.200;5.814;2023-03-31T08:29:15;8.65;;;5.22;;
59504;SDS011;45321;53.200;5.814;2023-03-31T08:31:40;9.57;;;6.10;;
59504;SDS011;45321;53.200;5.814;2023-03-31T08:34:06;9.82;;;5.32;;
59504;SDS011;45321;53.200;5.814;2023-03-31T08:36:32;11.35;;;5.20;;
59504;SDS011;45321;53.200;5.814;2023-03-31T08:38:58;8.88;;;5.45;;
59504;SDS011;45321;53.200;5.814;2023-03-31T08:44:35;10.10;;;4.78;;
59504;SDS011;45321;53.200;5.814;2023-03-31T08:47:08;10.43;;;4.50;;
59504;SDS011;45321;53.200;5.814;2023-03-31T08:49:40;9.80;;;5.03;;
59504;SDS011;45321;53.200;5.814;2023-03-31T08:52:13;11.27;;;5.03;;
59504;SDS011;45321;53.200;5.814;2023-03-31T08:54:42;9.35;;;5.05;;
59504;SDS011;45321;53.200;5.814;2023-03-31T08:57:24;10.07;;;4.85;;
59504;SDS011;45321;53.200;5.814;2023-03-31T08:59:53;11.52;;;4.70;;
59504;SDS011;45321;53.200;5.814;2023-03-31T09:02:29;10.75;;;4.28;;
59504;SDS011;45321;53.200;5.814;2023-03-31T09:08:16;8.73;;;4.28;;
59504;SDS011;45321;53.200;5.814;2023-03-31T09:10:58;10.55;;;4.63;;
59504;SDS011;45321;53.200;5.814;2023-03-31T09:13:45;10.43;;;4.75;;
59504;SDS011;45321;53.200;5.814;2023-03-31T09:16:25;10.40;;;4.32;;
59504;SDS011;45321;53.200;5.814;2023-03-31T09:18:58;9.70;;;4.40;;
59504;SDS011;45321;53.200;5.814;2023-03-31T09:21:32;9.13;;;4.20;;
59504;SDS011;45321;53.200;5.814;2023-03-31T09:24:17;6.72;;;3.90;;
59504;SDS011;45321;53.200;5.814;2023-03-31T09:29:21;6.15;;;3.35;;
59504;SDS011;45321;53.200;5.814;2023-03-31T09:31:55;8.02;;;2.75;;
59504;SDS011;45321;53.200;5.814;2023-03-31T09:34:36;6.88;;;2.75;;
59504;SDS011;45321;53.200;5.814;2023-03-31T09:37:02;5.93;;;2.30;;
59504;SDS011;45321;53.200;5.814;2023-03-31T09:39:29;6.05;;;2.45;;
59504;SDS011;45321;53.200;5.814;2023-03-31T09:41:54;9.40;;;2.80;;
59504;SDS011;45321;53.200;5.814;2023-03-31T09:44:37;6.75;;;2.13;;
59504;SDS011;45321;53.200;5.814;2023-03-31T09:47:05;5.68;;;2.70;;
59504;SDS011;45321;53.200;5.814;2023-03-31T09:49:36;9.23;;;2.72;;
59504;SDS011;45321;53.200;5.814;2023-03-31T09:52:04;5.03;;;2.83;;
59504;SDS011;45321;53.200;5.814;2023-03-31T09:54:40;6.35;;;2.80;;
59504;SDS011;45321;53.200;5.814;2023-03-31T09:57:13;10.30;;;3.38;;
59504;SDS011;45321;53.200;5.814;2023-03-31T09:59:51;7.75;;;2.80;;
59504;SDS011;45321;53.200;5.814;2023-03-31T10:04:49;6.80;;;3.65;;
59504;SDS011;45321;53.200;5.814;2023-03-31T10:07:19;10.20;;;3.80;;
59504;SDS011;45321;53.200;5.814;2023-03-31T10:09:47;11.32;;;4.00;;
59504;SDS011;45321;53.200;5.814;2023-03-31T10:12:18;8.98;;;3.90;;
59504;SDS011;45321;53.200;5.814;2023-03-31T10:14:52;8.10;;;4.17;;
59504;SDS011;45321;53.200;5.814;2023-03-31T10:17:22;9.73;;;4.15;;
59504;SDS011;45321;53.200;5.814;2023-03-31T10:19:55;9.55;;;3.72;;
59504;SDS011;45321;53.200;5.814;2023-03-31T10:24:54;13.23;;;5.68;;
59504;SDS011;45321;53.200;5.814;2023-03-31T10:27:34;23.23;;;8.82;;
59504;SDS011;45321;53.200;5.814;2023-03-31T10:30:03;25.23;;;11.50;;
59504;SDS011;45321;53.200;5.814;2023-03-31T10:32:37;10.13;;;4.10;;
59504;SDS011;45321;53.200;5.814;2023-03-31T10:35:53;10.20;;;3.95;;
59504;SDS011;45321;53.200;5.814;2023-03-31T10:38:09;7.80;;;3.47;;
59504;SDS011;45321;53.200;5.814;2023-03-31T10:40:38;12.30;;;3.78;;
59504;SDS011;45321;53.200;5.814;2023-03-31T10:43:14;15.35;;;4.47;;
59504;SDS011;45321;53.200;5.814;2023-03-31T10:45:49;12.70;;;3.78;;
59504;SDS011;45321;53.200;5.814;2023-03-31T10:48:18;12.20;;;3.75;;
59504;SDS011;45321;53.200;5.814;2023-03-31T10:51:03;12.85;;;3.42;;
59504;SDS011;45321;53.200;5.814;2023-03-31T10:58:49;15.30;;;4.15;;
59504;SDS011;45321;53.200;5.814;2023-03-31T11:09:15;9.90;;;2.90;;
59504;SDS011;45321;53.200;5.814;2023-03-31T11:17:50;9.93;;;2.92;;
59504;SDS011;45321;53.200;5.814;2023-03-31T11:20:33;9.65;;;2.83;;
59504;SDS011;45321;53.200;5.814;2023-03-31T11:23:21;9.85;;;2.53;;
59504;SDS011;45321;53.200;5.814;2023-03-31T11:28:32;11.05;;;2.88;;
59504;SDS011;45321;53.200;5.814;2023-03-31T11:32:02;10.65;;;2.75;;
59504;SDS011;45321;53.200;5.814;2023-03-31T11:34:35;8.65;;;2.42;;
59504;SDS011;45321;53.200;5.814;2023-03-31T11:40:17;10.48;;;2.72;;
59504;SDS011;45321;53.200;5.814;2023-03-31T11:43:11;15.80;;;3.85;;
59504;SDS011;45321;53.200;5.814;2023-03-31T11:46:02;10.98;;;2.88;;
59504;SDS011;45321;53.200;5.814;2023-03-31T11:51:08;12.95;;;3.80;;
59504;SDS011;45321;53.200;5.814;2023-03-31T11:53:49;13.68;;;4.43;;
59504;SDS011;45321;53.200;5.814;2023-03-31T11:56:17;10.68;;;2.88;;
59504;SDS011;45321;53.200;5.814;2023-03-31T11:58:51;15.70;;;3.92;;
59504;SDS011;45321;53.200;5.814;2023-03-31T12:01:41;9.75;;;3.10;;
59504;SDS011;45321;53.200;5.814;2023-03-31T12:04:16;10.90;;;2.80;;
59504;SDS011;45321;53.200;5.814;2023-03-31T12:06:47;12.18;;;3.33;;
59504;SDS011;45321;53.200;5.814;2023-03-31T12:12:21;10.05;;;3.00;;
59504;SDS011;45321;53.200;5.814;2023-03-31T12:15:09;11.63;;;3.20;;
59504;SDS011;45321;53.200;5.814;2023-03-31T12:17:48;11.05;;;3.35;;
59504;SDS011;45321;53.200;5.814;2023-03-31T12:20:24;14.43;;;3.80;;
59504;SDS011;45321;53.200;5.814;2023-03-31T12:22:57;10.63;;;3.83;;
59504;SDS011;45321;53.200;5.814;2023-03-31T12:25:24;13.93;;;3.83;;
59504;SDS011;45321;53.200;5.814;2023-03-31T12:28:05;10.95;;;3.88;;
59504;SDS011;45321;53.200;5.814;2023-03-31T12:30:34;17.30;;;4.57;;
59504;SDS011;45321;53.200;5.814;2023-03-31T12:35:51;14.35;;;3.95;;
59504;SDS011;45321;53.200;5.814;2023-03-31T12:47:27;16.37;;;4.57;;
59504;SDS011;45321;53.200;5.814;2023-03-31T12:50:14;16.98;;;3.65;;
59504;SDS011;45321;53.200;5.814;2023-03-31T12:52:48;16.58;;;4.30;;
59504;SDS011;45321;53.200;5.814;2023-03-31T12:55:26;12.88;;;4.28;;
59504;SDS011;45321;53.200;5.814;2023-03-31T13:09:04;13.18;;;2.88;;
59504;SDS011;45321;53.200;5.814;2023-03-31T13:11:43;10.68;;;2.95;;
59504;SDS011;45321;53.200;5.814;2023-03-31T13:14:13;10.48;;;2.40;;
59504;SDS011;45321;53.200;5.814;2023-03-31T13:17:09;13.48;;;2.92;;
59504;SDS011;45321;53.200;5.814;2023-03-31T13:19:38;9.68;;;2.53;;
59504;SDS011;45321;53.200;5.814;2023-03-31T13:22:06;10.30;;;2.03;;
59504;SDS011;45321;53.200;5.814;2023-03-31T13:24:51;8.63;;;2.35;;
59504;SDS011;45321;53.200;5.814;2023-03-31T13:27:28;10.57;;;2.40;;
59504;SDS011;45321;53.200;5.814;2023-03-31T13:29:56;8.20;;;1.38;;
59504;SDS011;45321;53.200;5.814;2023-03-31T13:32:26;8.38;;;1.63;;
59504;SDS011;45321;53.200;5.814;2023-03-31T13:41:01;8.27;;;1.77;;
59504;SDS011;45321;53.200;5.814;2023-03-31T13:46:35;7.22;;;1.65;;
59504;SDS011;45321;53.200;5.814;2023-03-31T13:49:53;6.20;;;1.35;;
59504;SDS011;45321;53.200;5.814;2023-03-31T13:52:02;6.65;;;2.33;;
59504;SDS011;45321;53.200;5.814;2023-03-31T14:00:17;11.80;;;2.63;;
59504;SDS011;45321;53.200;5.814;2023-03-31T14:14:00;4.55;;;1.50;;
59504;SDS011;45321;53.200;5.814;2023-03-31T14:16:27;8.32;;;2.00;;
59504;SDS011;45321;53.200;5.814;2023-03-31T14:19:01;6.05;;;1.30;;
59504;SDS011;45321;53.200;5.814;2023-03-31T14:22:00;9.48;;;2.25;;
59504;SDS011;45321;53.200;5.814;2023-03-31T14:25:08;6.90;;;2.00;;
59504;SDS011;45321;53.200;5.814;2023-03-31T14:36:34;4.93;;;1.50;;
59504;SDS011;45321;53.200;5.814;2023-03-31T14:39:40;6.35;;;1.40;;
59504;SDS011;45321;53.200;5.814;2023-03-31T14:42:39;5.75;;;2.20;;
59504;SDS011;45321;53.200;5.814;2023-03-31T14:45:15;4.72;;;1.25;;
59504;SDS011;45321;53.200;5.814;2023-03-31T14:47:52;6.78;;;1.67;;
59504;SDS011;45321;53.200;5.814;2023-03-31T14:50:34;8.77;;;1.97;;
59504;SDS011;45321;53.200;5.814;2023-03-31T14:53:00;5.40;;;1.50;;
59504;SDS011;45321;53.200;5.814;2023-03-31T14:55:30;6.75;;;2.17;;
59504;SDS011;45321;53.200;5.814;2023-03-31T14:57:59;6.88;;;1.73;;
59504;SDS011;45321;53.200;5.814;2023-03-31T15:00:26;4.70;;;1.48;;
59504;SDS011;45321;53.200;5.814;2023-03-31T15:02:55;6.25;;;1.63;;
59504;SDS011;45321;53.200;5.814;2023-03-31T15:07:55;4.90;;;1.60;;
59504;SDS011;45321;53.200;5.814;2023-03-31T15:10:22;6.75;;;1.58;;
59504;SDS011;45321;53.200;5.814;2023-03-31T15:12:48;3.83;;;1.42;;
59504;SDS011;45321;53.200;5.814;2023-03-31T15:15:15;5.07;;;1.00;;
59504;SDS011;45321;53.200;5.814;2023-03-31T15:17:44;4.57;;;1.10;;
59504;SDS011;45321;53.200;5.814;2023-03-31T15:20:25;6.13;;;1.35;;
59504;SDS011;45321;53.200;5.814;2023-03-31T15:22:56;6.00;;;1.42;;
59504;SDS011;45321;53.200;5.814;2023-03-31T15:25:24;5.03;;;1.60;;
59504;SDS011;45321;53.200;5.814;2023-03-31T15:28:00;6.85;;;1.65;;
59504;SDS011;45321;53.200;5.814;2023-03-31T15:30:29;5.70;;;1.80;;
59504;SDS011;45321;53.200;5.814;2023-03-31T15:32:56;7.05;;;1.90;;
59504;SDS011;45321;53.200;5.814;2023-03-31T15:35:32;5.78;;;2.00;;
59504;SDS011;45321;53.200;5.814;2023-03-31T15:38:01;7.82;;;2.50;;
59504;SDS011;45321;53.200;5.814;2023-03-31T15:40:38;6.55;;;2.42;;
59504;SDS011;45321;53.200;5.814;2023-03-31T15:43:12;4.13;;;1.40;;
59504;SDS011;45321;53.200;5.814;2023-03-31T15:45:50;5.82;;;1.77;;
59504;SDS011;45321;53.200;5.814;2023-03-31T15:48:35;3.97;;;1.27;;
59504;SDS011;45321;53.200;5.814;2023-03-31T15:53:45;3.63;;;1.23;;
59504;SDS011;45321;53.200;5.814;2023-03-31T16:01:32;6.85;;;1.80;;
59504;SDS011;45321;53.200;5.814;2023-03-31T16:04:05;8.93;;;2.53;;
59504;SDS011;45321;53.200;5.814;2023-03-31T16:06:42;6.28;;;1.80;;
59504;SDS011;45321;53.200;5.814;2023-03-31T16:09:12;4.72;;;1.85;;
59504;SDS011;45321;53.200;5.814;2023-03-31T16:12:09;7.22;;;2.10;;
59504;SDS011;45321;53.200;5.814;2023-03-31T16:17:35;8.35;;;2.13;;
59504;SDS011;45321;53.200;5.814;2023-03-31T16:20:29;6.70;;;2.28;;
59504;SDS011;45321;53.200;5.814;2023-03-31T16:22:56;7.00;;;2.28;;
59504;SDS011;45321;53.200;5.814;2023-03-31T16:25:24;5.40;;;1.63;;
59504;SDS011;45321;53.200;5.814;2023-03-31T16:27:58;6.10;;;1.90;;
59504;SDS011;45321;53.200;5.814;2023-03-31T16:30:33;5.65;;;1.70;;
59504;SDS011;45321;53.200;5.814;2023-03-31T16:33:00;7.03;;;2.67;;
59504;SDS011;45321;53.200;5.814;2023-03-31T16:35:30;4.38;;;1.60;;
59504;SDS011;45321;53.200;5.814;2023-03-31T16:37:57;5.25;;;1.80;;
59504;SDS011;45321;53.200;5.814;2023-03-31T16:40:25;6.75;;;2.33;;
59504;SDS011;45321;53.200;5.814;2023-03-31T16:48:05;5.50;;;2.25;;
59504;SDS011;45321;53.200;5.814;2023-03-31T16:50:31;8.55;;;2.22;;
59504;SDS011;45321;53.200;5.814;2023-03-31T16:52:56;5.88;;;2.22;;
59504;SDS011;45321;53.200;5.814;2023-03-31T16:55:23;4.28;;;1.80;;
59504;SDS011;45321;53.200;5.814;2023-03-31T16:57:49;5.38;;;2.30;;
59504;SDS011;45321;53.200;5.814;2023-03-31T17:00:16;7.15;;;2.30;;
59504;SDS011;45321;53.200;5.814;2023-03-31T17:02:43;9.65;;;3.03;;
59504;SDS011;45321;53.200;5.814;2023-03-31T17:05:08;5.25;;;2.50;;
59504;SDS011;45321;53.200;5.814;2023-03-31T17:07:35;7.13;;;2.90;;
59504;SDS011;45321;53.200;5.814;2023-03-31T17:10:00;6.45;;;3.05;;
59504;SDS011;45321;53.200;5.814;2023-03-31T17:12:26;11.27;;;6.35;;
59504;SDS011;45321;53.200;5.814;2023-03-31T17:14:52;7.45;;;3.50;;
59504;SDS011;45321;53.200;5.814;2023-03-31T17:17:18;7.22;;;2.72;;
59504;SDS011;45321;53.200;5.814;2023-03-31T17:19:46;7.72;;;2.80;;
59504;SDS011;45321;53.200;5.814;2023-03-31T17:22:12;7.63;;;2.85;;
59504;SDS011;45321;53.200;5.814;2023-03-31T17:24:38;6.03;;;2.63;;
59504;SDS011;45321;53.200;5.814;2023-03-31T17:27:03;8.00;;;2.70;;
59504;SDS011;45321;53.200;5.814;2023-03-31T17:29:29;6.85;;;2.92;;
59504;SDS011;45321;53.200;5.814;2023-03-31T17:31:55;6.32;;;2.53;;
59504;SDS011;45321;53.200;5.814;2023-03-31T17:34:26;6.68;;;2.90;;
59504;SDS011;45321;53.200;5.814;2023-03-31T17:36:55;7.95;;;2.50;;
59504;SDS011;45321;53.200;5.814;2023-03-31T17:39:23;8.05;;;2.90;;
59504;SDS011;45321;53.200;5.814;2023-03-31T17:41:53;6.28;;;2.00;;
59504;SDS011;45321;53.200;5.814;2023-03-31T17:44:19;5.97;;;1.85;;
59504;SDS011;45321;53.200;5.814;2023-03-31T17:46:44;5.40;;;2.00;;
59504;SDS011;45321;53.200;5.814;2023-03-31T17:49:10;3.97;;;1.42;;